createdAt,value
2018-08-04T00:00:02.994Z,95143.67
2018-08-04T00:02:32.563Z,95144.31
2018-08-04T00:05:02.204Z,95146.28
2018-08-04T00:07:31.494Z,95145.78
2018-08-04T00:10:00.367Z,95144.42
2018-08-04T00:12:29.805Z,95135.88
2018-08-04T00:14:58.763Z,95130.87
2018-08-04T00:17:27.754Z,95131.64
2018-08-04T00:19:56.792Z,95130.55
2018-08-04T00:22:26.077Z,95127.06
2018-08-04T00:24:55.417Z,95124.16
2018-08-04T00:27:24.797Z,95126.64
2018-08-04T00:29:53.772Z,95119.14
2018-08-04T00:32:23.782Z,95123.05
2018-08-04T00:34:52.999Z,95121.60
2018-08-04T00:37:21.878Z,95122.27
2018-08-04T00:39:50.968Z,95120.53
2018-08-04T00:42:20.290Z,95127.41
2018-08-04T00:44:49.979Z,95126.44
2018-08-04T00:47:18.795Z,95129.02
2018-08-04T00:49:48.570Z,95127.00
2018-08-04T00:52:17.584Z,95127.27
2018-08-04T00:54:46.791Z,95121.84
2018-08-04T00:57:16.114Z,95132.26
2018-08-04T00:59:45.196Z,95128.72
2018-08-04T01:02:14.283Z,95132.63
2018-08-04T01:04:44.546Z,95132.87
2018-08-04T01:07:13.290Z,95135.92
2018-08-04T01:09:42.185Z,95130.27
2018-08-04T01:12:12.019Z,95133.94
2018-08-04T01:14:40.992Z,95130.94
2018-08-04T01:17:09.854Z,95128.55
2018-08-04T01:19:39.512Z,95129.31
2018-08-04T01:22:09.104Z,95130.08
2018-08-04T01:24:38.194Z,95132.82
2018-08-04T01:27:07.431Z,95128.28
2018-08-04T01:29:36.535Z,95129.18
2018-08-04T01:32:05.502Z,95130.84
2018-08-04T01:34:34.825Z,95128.06
2018-08-04T01:37:03.891Z,95127.33
2018-08-04T01:39:33.094Z,95132.89
2018-08-04T01:42:03.454Z,95132.89
2018-08-04T01:44:33.304Z,95138.20
2018-08-04T01:47:02.416Z,95132.05
2018-08-04T01:49:32.158Z,95126.50
2018-08-04T01:52:01.047Z,95129.50
2018-08-04T01:54:30.133Z,95132.28
2018-08-04T01:56:59.594Z,95127.75
2018-08-04T01:59:28.427Z,95125.09
2018-08-04T02:01:57.428Z,95130.80
2018-08-04T02:04:26.738Z,95124.36
2018-08-04T02:06:55.827Z,95131.81
2018-08-04T02:09:24.822Z,95133.59
2018-08-04T02:11:54.035Z,95131.55
2018-08-04T02:14:23.114Z,95129.80
2018-08-04T02:16:52.102Z,95128.53
2018-08-04T02:19:21.427Z,95140.39
2018-08-04T02:21:51.179Z,95138.02
2018-08-04T02:24:20.723Z,95135.87
2018-08-04T02:26:50.039Z,95131.96
2018-08-04T02:29:19.210Z,95128.25
2018-08-04T02:31:48.503Z,95139.48
2018-08-04T02:34:18.123Z,95135.19
2018-08-04T02:36:46.920Z,95135.45
2018-08-04T02:39:16.407Z,95135.45
2018-08-04T02:41:45.750Z,95140.50
2018-08-04T02:44:14.631Z,95135.59
2018-08-04T02:46:43.524Z,95131.67
2018-08-04T02:49:12.947Z,95136.47
2018-08-04T02:51:41.808Z,95144.53
2018-08-04T02:54:10.975Z,95136.83
2018-08-04T02:56:39.934Z,95143.01
2018-08-04T02:59:09.063Z,95150.31
2018-08-04T03:01:38.215Z,95151.31
2018-08-04T03:04:07.414Z,95150.42
2018-08-04T03:06:36.495Z,95151.45
2018-08-04T03:09:08.802Z,95152.09
2018-08-04T03:11:38.079Z,95153.45
2018-08-04T03:14:07.547Z,95159.91
2018-08-04T03:16:36.842Z,95167.84
2018-08-04T03:19:05.972Z,95167.84
2018-08-04T03:21:34.731Z,95166.46
2018-08-04T03:24:04.591Z,95180.81
2018-08-04T03:26:33.443Z,95169.86
2018-08-04T03:29:02.765Z,95181.20
2018-08-04T03:31:31.954Z,95183.09
2018-08-04T03:34:00.998Z,95178.33
2018-08-04T03:36:30.318Z,95179.61
2018-08-04T03:38:59.670Z,95181.41
2018-08-04T03:41:29.388Z,95186.81
2018-08-04T03:43:58.473Z,95188.89
2018-08-04T03:46:27.504Z,95185.84
2018-08-04T03:48:56.676Z,95191.89
2018-08-04T03:51:27.427Z,95199.78
2018-08-04T03:53:56.737Z,95196.73
2018-08-04T03:56:25.821Z,95196.83
2018-08-04T03:58:54.488Z,95198.59
2018-08-04T04:01:24.441Z,95197.77
2018-08-04T04:03:53.400Z,95193.58
2018-08-04T04:06:22.201Z,95199.98
2018-08-04T04:08:51.112Z,95200.42
2018-08-04T04:11:20.067Z,95199.23
2018-08-04T04:13:49.538Z,95205.87
2018-08-04T04:16:18.743Z,95200.22
2018-08-04T04:18:47.674Z,95205.17
2018-08-04T04:21:16.743Z,95204.02
2018-08-04T04:23:46.228Z,95202.17
2018-08-04T04:26:15.250Z,95207.80
2018-08-04T04:28:44.060Z,95211.25
2018-08-04T04:31:13.365Z,95214.30
2018-08-04T04:33:42.326Z,95209.18
2018-08-04T04:36:11.538Z,95212.45
2018-08-04T04:38:40.387Z,95209.06
2018-08-04T04:41:09.448Z,95217.73
2018-08-04T04:43:38.643Z,95211.50
2018-08-04T04:46:07.914Z,95217.11
2018-08-04T04:48:36.948Z,95212.75
2018-08-04T04:51:06.239Z,95219.87
2018-08-04T04:53:36.467Z,95218.55
2018-08-04T04:56:05.554Z,95218.46
2018-08-04T04:58:34.442Z,95228.19
2018-08-04T05:01:03.311Z,95230.63
2018-08-04T05:03:32.241Z,95233.16
2018-08-04T05:06:01.365Z,95234.33
2018-08-04T05:08:30.654Z,95236.84
2018-08-04T05:11:00.130Z,95239.53
2018-08-04T05:13:29.040Z,95245.39
2018-08-04T05:15:58.782Z,95240.74
2018-08-04T05:18:28.403Z,95247.00
2018-08-04T05:20:57.955Z,95243.46
2018-08-04T05:23:27.099Z,95242.75
2018-08-04T05:25:55.958Z,95239.67
2018-08-04T05:28:24.939Z,95236.67
2018-08-04T05:30:53.983Z,95233.02
2018-08-04T05:33:23.131Z,95229.10
2018-08-04T05:35:51.922Z,95221.38
2018-08-04T05:38:21.063Z,95224.73
2018-08-04T05:40:50.242Z,95227.13
2018-08-04T05:43:19.388Z,95221.89
2018-08-04T05:45:48.842Z,95215.50
2018-08-04T05:48:17.825Z,95215.58
2018-08-04T05:50:47.361Z,95207.72
2018-08-04T05:53:16.798Z,95206.94
2018-08-04T05:55:45.930Z,95207.58
2018-08-04T05:58:14.710Z,95206.28
2018-08-04T06:00:43.947Z,95211.27
2018-08-04T06:03:12.909Z,95211.16
2018-08-04T06:05:41.695Z,95202.91
2018-08-04T06:08:10.791Z,95202.11
2018-08-04T06:10:39.813Z,95200.75
2018-08-04T06:13:08.695Z,95206.20
2018-08-04T06:15:37.882Z,95203.02
2018-08-04T06:18:07.097Z,95204.56
2018-08-04T06:20:36.407Z,95207.45
2018-08-04T06:23:05.823Z,95201.48
2018-08-04T06:25:34.994Z,95203.61
2018-08-04T06:28:04.105Z,95199.50
2018-08-04T06:30:33.068Z,95196.63
2018-08-04T06:33:02.183Z,95205.45
2018-08-04T06:35:31.048Z,95203.14
2018-08-04T06:38:00.291Z,95199.31
2018-08-04T06:40:29.431Z,95200.33
2018-08-04T06:42:58.219Z,95204.56
2018-08-04T06:45:27.405Z,95205.46
2018-08-04T06:47:56.647Z,95204.73
2018-08-04T06:50:25.809Z,95196.28
2018-08-04T06:52:55.496Z,95189.96
2018-08-04T06:55:24.572Z,95188.41
2018-08-04T06:57:53.715Z,95194.13
2018-08-04T07:00:22.859Z,95189.91
2018-08-04T07:02:51.707Z,95189.59
2018-08-04T07:05:20.778Z,95200.72
2018-08-04T07:07:50.255Z,95195.52
2018-08-04T07:10:19.326Z,95200.67
2018-08-04T07:12:48.174Z,95186.36
2018-08-04T07:15:18.132Z,95192.42
2018-08-04T07:17:47.239Z,95185.75
2018-08-04T07:20:15.924Z,95189.17
2018-08-04T07:22:45.539Z,95184.63
2018-08-04T07:25:14.511Z,95185.20
2018-08-04T07:27:43.623Z,95187.62
2018-08-04T07:30:15.498Z,95182.34
2018-08-04T07:32:45.648Z,95178.81
2018-08-04T07:35:14.505Z,95174.77
2018-08-04T07:37:44.331Z,95173.35
2018-08-04T07:40:13.501Z,95169.37
2018-08-04T07:42:42.934Z,95172.33
2018-08-04T07:45:12.093Z,95178.80
2018-08-04T07:47:41.612Z,95176.36
2018-08-04T07:50:10.535Z,95184.59
2018-08-04T07:52:39.819Z,95173.28
2018-08-04T07:55:08.926Z,95171.22
2018-08-04T07:57:37.791Z,95176.03
2018-08-04T08:00:07.872Z,95172.14
2018-08-04T08:02:36.699Z,95179.13
2018-08-04T08:05:06.033Z,95173.19
2018-08-04T08:07:35.434Z,95171.63
2018-08-04T08:10:04.999Z,95171.45
2018-08-04T08:12:34.981Z,95175.45
2018-08-04T08:15:04.406Z,95171.36
2018-08-04T08:17:33.226Z,95168.63
2018-08-04T08:20:02.415Z,95166.06
2018-08-04T08:22:40.475Z,95174.94
2018-08-04T08:25:10.933Z,95174.77
2018-08-04T08:27:40.844Z,95171.62
2018-08-04T08:30:14.047Z,95170.75
2018-08-04T08:32:43.633Z,95167.39
2018-08-04T08:35:12.727Z,95161.19
2018-08-04T08:37:41.999Z,95160.48
2018-08-04T08:40:11.023Z,95147.18
2018-08-04T08:42:39.935Z,95154.16
2018-08-04T08:45:10.096Z,95151.44
2018-08-04T08:47:39.289Z,95153.04
2018-08-04T08:50:10.467Z,95148.59
2018-08-04T08:52:40.940Z,95153.41
2018-08-04T08:55:10.531Z,95140.33
2018-08-04T08:57:39.571Z,95131.05
2018-08-04T09:00:10.494Z,95129.56
2018-08-04T09:02:39.507Z,95132.95
2018-08-04T09:05:09.781Z,95131.70
2018-08-04T09:07:39.122Z,95122.23
2018-08-04T09:10:11.198Z,95132.00
2018-08-04T09:12:40.145Z,95127.44
2018-08-04T09:15:09.484Z,95121.59
2018-08-04T09:17:38.484Z,95107.58
2018-08-04T09:20:07.956Z,95124.95
2018-08-04T09:22:37.503Z,95126.56
2018-08-04T09:25:07.972Z,95121.16
2018-08-04T09:27:38.031Z,95128.94
2018-08-04T09:30:09.003Z,95110.16
2018-08-04T09:32:37.883Z,95115.92
2018-08-04T09:35:07.502Z,95113.73
2018-08-04T09:37:37.153Z,95116.75
2018-08-04T09:40:08.066Z,95109.64
2018-08-04T09:42:37.022Z,95121.53
2018-08-04T09:45:07.358Z,95105.30
2018-08-04T09:47:37.015Z,95100.62
2018-08-04T09:50:07.890Z,95104.34
2018-08-04T09:52:37.070Z,95114.72
2018-08-04T09:55:07.087Z,95106.66
2018-08-04T09:57:36.671Z,95116.27
2018-08-04T10:00:08.818Z,95105.91
2018-08-04T10:02:37.911Z,95116.95
2018-08-04T10:05:07.103Z,95105.06
2018-08-04T10:07:37.247Z,95117.30
2018-08-04T10:10:06.526Z,95107.34
2018-08-04T10:12:35.827Z,95116.61
2018-08-04T10:15:05.576Z,95104.35
2018-08-04T10:17:35.063Z,95104.55
2018-08-04T10:20:03.888Z,95108.74
2018-08-04T10:22:33.186Z,95105.27
2018-08-04T10:25:02.315Z,95091.40
2018-08-04T10:27:31.787Z,95094.25
2018-08-04T10:30:01.018Z,95107.59
2018-08-04T10:32:30.552Z,95103.12
2018-08-04T10:34:59.589Z,95088.94
2018-08-04T10:37:28.830Z,95092.97
2018-08-04T10:39:58.702Z,95099.84
2018-08-04T10:42:28.332Z,95089.08
2018-08-04T10:44:59.135Z,95105.55
2018-08-04T10:47:34.751Z,95086.89
2018-08-04T10:50:04.983Z,95075.56
2018-08-04T10:52:34.273Z,95090.08
2018-08-04T10:55:04.037Z,95092.13
2018-08-04T10:57:33.403Z,95085.30
2018-08-04T11:00:02.569Z,95083.06
2018-08-04T11:02:31.998Z,95078.72
2018-08-04T11:05:01.318Z,95087.30
2018-08-04T11:07:30.069Z,95086.41
2018-08-04T11:09:58.881Z,95073.44
2018-08-04T11:12:28.247Z,95090.28
2018-08-04T11:14:57.279Z,95076.15
2018-08-04T11:17:26.064Z,95078.47
2018-08-04T11:19:55.670Z,95093.84
2018-08-04T11:22:24.761Z,95074.80
2018-08-04T11:24:53.818Z,95081.03
2018-08-04T11:27:23.130Z,95080.84
2018-08-04T11:29:52.051Z,95075.42
2018-08-04T11:32:20.852Z,95076.25
2018-08-04T11:34:50.359Z,95073.56
2018-08-04T11:37:19.627Z,95071.14
2018-08-04T11:39:48.547Z,95069.69
2018-08-04T11:42:17.671Z,95065.61
2018-08-04T11:44:46.500Z,95067.06
2018-08-04T11:47:15.417Z,95071.37
2018-08-04T11:49:44.855Z,95064.78
2018-08-04T11:52:14.835Z,95070.81
2018-08-04T11:54:43.630Z,95065.12
2018-08-04T11:57:12.930Z,95065.80
2018-08-04T11:59:41.833Z,95076.70
2018-08-04T12:02:11.347Z,95061.01
2018-08-04T12:04:41.191Z,95064.77
2018-08-04T12:07:10.276Z,95060.59
2018-08-04T12:09:39.141Z,95067.67
2018-08-04T12:12:08.767Z,95070.97
2018-08-04T12:14:37.641Z,95050.77
2018-08-04T12:17:06.329Z,95056.58
2018-08-04T12:19:35.414Z,95058.51
2018-08-04T12:22:04.110Z,95062.92
2018-08-04T12:24:33.350Z,95059.58
2018-08-04T12:27:02.802Z,95050.41
2018-08-04T12:29:31.800Z,95039.78
2018-08-04T12:32:01.229Z,95043.09
2018-08-04T12:34:30.323Z,95045.06
2018-08-04T12:36:59.571Z,95045.80
2018-08-04T12:39:28.211Z,95055.27
2018-08-04T12:41:57.935Z,95054.41
2018-08-04T12:44:27.011Z,95053.32
2018-08-04T12:46:56.248Z,95064.34
2018-08-04T12:49:25.641Z,95047.55
2018-08-04T12:51:54.970Z,95047.58
2018-08-04T12:54:23.914Z,95039.23
2018-08-04T12:56:53.131Z,95044.79
2018-08-04T12:59:21.899Z,95047.52
2018-08-04T13:01:51.010Z,95048.54
2018-08-04T13:04:20.334Z,95046.31
2018-08-04T13:06:49.079Z,95048.66
2018-08-04T13:09:18.601Z,95036.36
2018-08-04T13:11:47.812Z,95043.94
2018-08-04T13:14:17.246Z,95058.05
2018-08-04T13:16:46.465Z,95042.12
2018-08-04T13:19:16.019Z,95044.88
2018-08-04T13:21:45.099Z,95043.59
2018-08-04T13:24:14.719Z,95043.99
2018-08-04T13:26:44.110Z,95065.09
2018-08-04T13:29:13.196Z,95058.44
2018-08-04T13:31:42.263Z,95045.16
2018-08-04T13:34:11.712Z,95032.53
2018-08-04T13:36:40.503Z,95041.86
2018-08-04T13:39:10.603Z,95032.71
2018-08-04T13:41:41.188Z,95057.14
2018-08-04T13:44:10.976Z,95058.59
2018-08-04T13:46:40.372Z,95045.29
2018-08-04T13:49:09.677Z,95053.31
2018-08-04T13:51:38.854Z,95051.91
2018-08-04T13:54:07.959Z,95062.51
2018-08-04T13:56:37.213Z,95047.91
2018-08-04T13:59:06.257Z,95039.14
2018-08-04T14:01:35.248Z,95041.06
2018-08-04T14:04:04.678Z,95063.86
2018-08-04T14:06:33.661Z,95054.63
2018-08-04T14:09:02.554Z,95034.89
2018-08-04T14:11:31.538Z,95037.50
2018-08-04T14:14:00.225Z,95043.10
2018-08-04T14:16:29.235Z,95050.41
2018-08-04T14:18:58.547Z,95063.31
2018-08-04T14:21:27.858Z,95071.55
2018-08-04T14:23:56.915Z,95070.81
2018-08-04T14:26:26.322Z,95063.63
2018-08-04T14:28:55.399Z,95047.41
2018-08-04T14:31:24.512Z,95068.23
2018-08-04T14:33:53.783Z,95061.72
2018-08-04T14:36:23.059Z,95046.31
2018-08-04T14:38:52.387Z,95042.61
2018-08-04T14:41:21.734Z,95047.11
2018-08-04T14:43:50.883Z,95044.92
2018-08-04T14:46:20.083Z,95035.48
2018-08-04T14:48:49.231Z,95036.59
2018-08-04T14:51:18.512Z,95027.33
2018-08-04T14:53:47.509Z,95035.16
2018-08-04T14:56:16.547Z,95031.16
2018-08-04T14:58:45.803Z,95038.97
2018-08-04T15:01:15.008Z,95029.88
2018-08-04T15:03:44.023Z,95028.54
2018-08-04T15:06:13.093Z,95035.33
2018-08-04T15:08:42.875Z,95038.13
2018-08-04T15:11:12.013Z,95027.96
2018-08-04T15:13:40.996Z,95034.11
2018-08-04T15:16:10.282Z,95039.63
2018-08-04T15:18:40.956Z,95054.36
2018-08-04T15:21:10.443Z,95056.06
2018-08-04T15:23:40.559Z,95039.55
2018-08-04T15:26:09.379Z,95045.55
2018-08-04T15:28:38.605Z,95035.92
2018-08-04T15:31:07.666Z,95036.63
2018-08-04T15:33:37.255Z,95026.61
2018-08-04T15:36:06.459Z,95030.37
2018-08-04T15:38:35.539Z,95043.34
2018-08-04T15:41:04.381Z,95048.01
2018-08-04T15:43:33.148Z,95042.66
2018-08-04T15:46:02.229Z,95040.80
2018-08-04T15:48:32.079Z,95048.75
2018-08-04T15:51:01.024Z,95048.86
2018-08-04T15:53:30.283Z,95043.89
2018-08-04T15:56:00.557Z,95042.59
2018-08-04T15:58:31.047Z,95047.45
2018-08-04T16:01:00.601Z,95050.34
2018-08-04T16:03:29.815Z,95044.16
2018-08-04T16:05:58.626Z,95046.13
2018-08-04T16:08:27.413Z,95040.98
2018-08-04T16:10:57.247Z,95061.55
2018-08-04T16:13:26.468Z,95049.38
2018-08-04T16:15:55.530Z,95051.29
2018-08-04T16:18:24.638Z,95045.42
2018-08-04T16:20:54.348Z,95049.25
2018-08-04T16:23:23.546Z,95046.44
2018-08-04T16:25:53.061Z,95045.80
2018-08-04T16:28:22.424Z,95051.59
2018-08-04T16:30:51.427Z,95042.89
2018-08-04T16:33:20.898Z,95041.77
2018-08-04T16:35:50.059Z,95039.71
2018-08-04T16:38:21.530Z,95045.97
2018-08-04T16:40:52.064Z,95047.39
2018-08-04T16:43:21.293Z,95051.02
2018-08-04T16:45:50.082Z,95052.68
2018-08-04T16:48:19.494Z,95051.95
2018-08-04T16:50:48.570Z,95054.19
2018-08-04T16:53:17.681Z,95055.39
2018-08-04T16:55:47.191Z,95070.73
2018-08-04T16:58:16.687Z,95057.97
2018-08-04T17:00:46.003Z,95058.16
2018-08-04T17:03:15.136Z,95060.16
2018-08-04T17:05:44.107Z,95071.39
2018-08-04T17:08:12.943Z,95065.24
2018-08-04T17:10:42.244Z,95062.44
2018-08-04T17:13:11.937Z,95063.16
2018-08-04T17:15:42.774Z,95063.45
2018-08-04T17:18:12.236Z,95059.70
2018-08-04T17:20:41.431Z,95068.45
2018-08-04T17:23:10.710Z,95073.41
2018-08-04T17:25:39.954Z,95067.25
2018-08-04T17:28:08.829Z,95069.81
2018-08-04T17:30:37.444Z,95073.41
2018-08-04T17:33:07.128Z,95074.88
2018-08-04T17:35:36.304Z,95075.44
2018-08-04T17:38:05.310Z,95072.02
2018-08-04T17:40:34.738Z,95072.84
2018-08-04T17:43:03.495Z,95082.01
2018-08-04T17:45:32.468Z,95088.94
2018-08-04T17:48:01.577Z,95093.88
2018-08-04T17:50:31.207Z,95085.46
2018-08-04T17:53:00.811Z,95100.23
2018-08-04T17:55:30.127Z,95103.22
2018-08-04T17:57:59.403Z,95094.52
2018-08-04T18:00:28.608Z,95104.91
2018-08-04T18:02:57.759Z,95108.81
2018-08-04T18:05:26.813Z,95107.00
2018-08-04T18:07:55.826Z,95110.14
2018-08-04T18:10:25.110Z,95111.24
2018-08-04T18:12:54.248Z,95111.67
2018-08-04T18:15:23.090Z,95111.02
2018-08-04T18:17:52.158Z,95111.94
2018-08-04T18:20:21.079Z,95115.30
2018-08-04T18:22:50.480Z,95116.79
2018-08-04T18:25:20.217Z,95121.22
2018-08-04T18:27:49.099Z,95128.70
2018-08-04T18:30:18.393Z,95131.09
2018-08-04T18:32:47.907Z,95129.05
2018-08-04T18:35:17.694Z,95130.69
2018-08-04T18:37:46.821Z,95137.44
2018-08-04T18:40:15.940Z,95133.91
2018-08-04T18:42:44.832Z,95136.80
2018-08-04T18:45:13.790Z,95136.83
2018-08-04T18:47:43.103Z,95147.61
2018-08-04T18:50:12.300Z,95141.27
2018-08-04T18:52:41.296Z,95144.30
2018-08-04T18:55:10.811Z,95133.88
2018-08-04T18:57:39.664Z,95141.20
2018-08-04T19:00:09.294Z,95152.15
2018-08-04T19:02:38.793Z,95152.05
2018-08-04T19:05:07.527Z,95151.20
2018-08-04T19:07:36.675Z,95154.53
2018-08-04T19:10:06.207Z,95157.54
2018-08-04T19:12:35.383Z,95155.59
2018-08-04T19:15:04.699Z,95148.94
2018-08-04T19:17:34.111Z,95140.64
2018-08-04T19:20:03.247Z,95153.87
2018-08-04T19:22:32.505Z,95150.95
2018-08-04T19:25:01.664Z,95146.55
2018-08-04T19:27:30.764Z,95147.88
2018-08-04T19:30:00.179Z,95144.64
2018-08-04T19:32:29.836Z,95144.73
2018-08-04T19:34:58.715Z,95138.70
2018-08-04T19:37:27.800Z,95134.83
2018-08-04T19:39:57.908Z,95141.50
2018-08-04T19:42:26.919Z,95140.39
2018-08-04T19:44:55.912Z,95139.42
2018-08-04T19:47:25.047Z,95140.44
2018-08-04T19:49:53.998Z,95138.51
2018-08-04T19:52:23.039Z,95142.47
2018-08-04T19:54:52.510Z,95145.70
2018-08-04T19:57:21.696Z,95142.66
2018-08-04T19:59:50.595Z,95136.23
2018-08-04T20:02:19.911Z,95137.94
2018-08-04T20:04:48.777Z,95141.57
2018-08-04T20:07:17.592Z,95142.20
2018-08-04T20:09:47.279Z,95136.41
2018-08-04T20:12:16.183Z,95141.67
2018-08-04T20:14:45.390Z,95135.73
2018-08-04T20:17:14.795Z,95137.44
2018-08-04T20:19:44.162Z,95135.39
2018-08-04T20:22:16.313Z,95138.82
2018-08-04T20:24:45.658Z,95142.25
2018-08-04T20:27:15.372Z,95132.15
2018-08-04T20:29:44.664Z,95138.25
2018-08-04T20:32:13.745Z,95141.86
2018-08-04T20:34:42.541Z,95143.41
2018-08-04T20:37:11.668Z,95143.27
2018-08-04T20:39:40.971Z,95142.76
2018-08-04T20:42:09.968Z,95139.24
2018-08-04T20:44:39.329Z,95136.91
2018-08-04T20:47:08.875Z,95139.84
2018-08-04T20:49:38.567Z,95145.34
2018-08-04T20:52:07.911Z,95147.60
2018-08-04T20:54:37.158Z,95144.19
2018-08-04T20:57:06.147Z,95144.48
2018-08-04T20:59:35.482Z,95142.54
2018-08-04T21:02:05.601Z,95146.48
2018-08-04T21:04:36.099Z,95143.77
2018-08-04T21:07:05.505Z,95143.35
2018-08-04T21:09:35.168Z,95148.92
2018-08-04T21:12:04.887Z,95147.36
2018-08-04T21:14:33.834Z,95155.23
2018-08-04T21:17:02.628Z,95156.45
2018-08-04T21:19:31.629Z,95157.46
2018-08-04T21:22:00.575Z,95158.61
2018-08-04T21:24:29.724Z,95156.88
2018-08-04T21:26:59.870Z,95149.78
2018-08-04T21:29:29.169Z,95149.09
2018-08-04T21:31:58.534Z,95152.00
2018-08-04T21:34:27.856Z,95149.31
2018-08-04T21:36:56.783Z,95146.06
2018-08-04T21:39:25.630Z,95149.56
2018-08-04T21:41:55.190Z,95157.51
2018-08-04T21:44:24.014Z,95162.15
2018-08-04T21:46:54.029Z,95161.91
2018-08-04T21:49:23.063Z,95156.45
2018-08-04T21:51:52.095Z,95157.34
2018-08-04T21:54:21.030Z,95159.37
2018-08-04T21:56:50.630Z,95156.11
2018-08-04T21:59:20.963Z,95157.67
2018-08-04T22:01:56.694Z,95160.16
2018-08-04T22:04:26.462Z,95158.89
2018-08-04T22:08:03.979Z,95169.16
2018-08-04T22:10:34.305Z,95164.34
2018-08-04T22:13:03.480Z,95169.64
2018-08-04T22:15:32.871Z,95164.58
2018-08-04T22:18:02.033Z,95170.66
2018-08-04T22:20:31.403Z,95174.55
2018-08-04T22:23:00.700Z,95176.98
2018-08-04T22:25:30.702Z,95176.42
2018-08-04T22:28:00.234Z,95177.15
2018-08-04T22:30:29.529Z,95175.76
2018-08-04T22:32:58.579Z,95168.86
2018-08-04T22:35:27.806Z,95177.03
2018-08-04T22:37:57.302Z,95170.79
2018-08-04T22:40:26.496Z,95171.00
2018-08-04T22:42:55.664Z,95172.40
2018-08-04T22:46:03.353Z,95171.16
2018-08-04T22:48:32.619Z,95170.96
2018-08-04T22:51:01.723Z,95174.94
2018-08-04T22:53:31.294Z,95165.39
2018-08-04T22:56:00.483Z,95164.91
2018-08-04T22:58:29.690Z,95158.11
2018-08-04T23:00:59.276Z,95157.62
2018-08-04T23:03:28.365Z,95160.28
2018-08-04T23:05:57.497Z,95159.06
2018-08-04T23:08:26.802Z,95161.31
2018-08-04T23:10:56.078Z,95162.34
2018-08-04T23:13:25.393Z,95157.88
2018-08-04T23:15:55.992Z,95162.11
2018-08-04T23:18:25.104Z,95154.14
2018-08-04T23:20:54.310Z,95155.57
2018-08-04T23:23:23.784Z,95147.05
2018-08-04T23:25:54.059Z,95149.13
2018-08-04T23:28:23.126Z,95150.99
2018-08-04T23:30:52.598Z,95156.70
2018-08-04T23:33:21.826Z,95149.95
2018-08-04T23:35:51.681Z,95151.89
2018-08-04T23:38:21.298Z,95149.80
2018-08-04T23:40:50.590Z,95145.27
2018-08-04T23:43:19.759Z,95147.16
2018-08-04T23:45:48.792Z,95146.67
2018-08-04T23:48:17.746Z,95142.64
2018-08-04T23:50:46.671Z,95140.39
2018-08-04T23:53:16.206Z,95135.59
2018-08-04T23:55:45.172Z,95133.84
2018-08-04T23:58:14.155Z,95133.31
